Observation data for Anton on 10/14/2019      Previous  Date       Current Mesonet Observations  Soil Data  Daily Summary Page  Observations in Plain Language
KAOS 140500Z 23008KT 16/01 A2998 RMK A01 T01550005  RH  036%=      5-min Rain = 0
KAOS 140505Z 23008KT 15/01 A2998 RMK A01 T01520006  RH  038%=      5-min Rain = 0
KAOS 140510Z 23008KT 15/01 A2998 RMK A01 T01510007  RH  038%=      5-min Rain = 0
KAOS 140515Z 23008KT 15/01 A2998 RMK A01 T01510007  RH  038%=      5-min Rain = 0
KAOS 140520Z 23008KT 15/01 A2998 RMK A01 T01500008  RH  038%=      5-min Rain = 0
KAOS 140525Z 23009KT 15/01 A2998 RMK A01 T01510008  RH  038%=      5-min Rain = 0
KAOS 140530Z 24008KT 15/01 A2998 RMK A01 T01500008  RH  039%=      5-min Rain = 0
KAOS 140535Z 24007KT 15/01 A2998 RMK A01 T01460009  RH  040%=      5-min Rain = 0
KAOS 140540Z 24005KT 15/01 A2998 RMK A01 T01450010  RH  040%=      5-min Rain = 0
KAOS 140545Z 23005KT 14/01 A2998 RMK A01 T01400010  RH  042%=      5-min Rain = 0
KAOS 140550Z 26004KT 14/01 A2998 RMK A01 T01390011  RH  042%=      5-min Rain = 0
KAOS 140555Z 26002KT 13/01 A2998 RMK A01 T01260014  RH  047%=      5-min Rain = 0
KAOS 140600Z 26003KT 12/02 A2998 RMK A01 T01200016  RH  050%=      5-min Rain = 0
KAOS 140605Z 28003KT 12/02 A2998 RMK A01 T01170017  RH  051%=      5-min Rain = 0
KAOS 140610Z 28003KT 11/02 A2998 RMK A01 T01140016  RH  052%=      5-min Rain = 0
KAOS 140615Z 25005KT 12/02 A2998 RMK A01 T01150016  RH  051%=      5-min Rain = 0
KAOS 140620Z 26004KT 12/02 A2998 RMK A01 T01180016  RH  051%=      5-min Rain = 0
KAOS 140625Z 25005KT 12/02 A2998 RMK A01 T01150017  RH  052%=      5-min Rain = 0
KAOS 140630Z 25005KT 11/02 A2998 RMK A01 T01120017  RH  053%=      5-min Rain = 0
KAOS 140635Z 26004KT 11/02 A2998 RMK A01 T01100018  RH  054%=      5-min Rain = 0
KAOS 140640Z 14005G11KT 11/02 A2998 RMK A01 T01090019  RH  055%=      5-min Rain = 0
KAOS 140645Z 17006KT 12/02 A2999 RMK A01 T01240019  RH  049%=      5-min Rain = 0
KAOS 140650Z 20005KT 13/02 A2999 RMK A01 T01280020  RH  048%=      5-min Rain = 0
KAOS 140655Z 20004KT 12/02 A2999 RMK A01 T01240021  RH  050%=      5-min Rain = 0
KAOS 140700Z 21004KT 12/02 A2999 RMK A01 T01210020  RH  051%=      5-min Rain = 0
KAOS 140705Z 21006KT 12/02 A2999 RMK A01 T01220019  RH  050%=      5-min Rain = 0
KAOS 140710Z 21007KT 13/02 A2999 RMK A01 T01260017  RH  048%=      5-min Rain = 0
KAOS 140715Z 22007KT 13/02 A2999 RMK A01 T01280017  RH  047%=      5-min Rain = 0
KAOS 140720Z 22005KT 13/02 A2999 RMK A01 T01300016  RH  047%=      5-min Rain = 0
KAOS 140725Z 23005KT 13/01 A2999 RMK A01 T01320013  RH  045%=      5-min Rain = 0
KAOS 140730Z 24006KT 13/01 A2999 RMK A01 T01310012  RH  045%=      5-min Rain = 0
KAOS 140735Z 24006KT 13/01 A2999 RMK A01 T01290012  RH  045%=      5-min Rain = 0
KAOS 140740Z 25006KT 13/01 A2999 RMK A01 T01280012  RH  046%=      5-min Rain = 0
KAOS 140745Z 24005KT 13/01 A2999 RMK A01 T01300011  RH  045%=      5-min Rain = 0
KAOS 140750Z 25004KT 13/01 A2999 RMK A01 T01300011  RH  045%=      5-min Rain = 0
KAOS 140755Z 25004KT 12/02 A2999 RMK A01 T01240017  RH  049%=      5-min Rain = 0
KAOS 140800Z 24005KT 11/02 A2998 RMK A01 T01120020  RH  054%=      5-min Rain = 0
KAOS 140805Z 24005KT 11/02 A2998 RMK A01 T01120016  RH  052%=      5-min Rain = 0
KAOS 140810Z 24005KT 12/01 A2998 RMK A01 T01170014  RH  050%=      5-min Rain = 0
KAOS 140815Z 24005KT 12/01 A2998 RMK A01 T01230013  RH  048%=      5-min Rain = 0
KAOS 140820Z 23005KT 13/01 A2998 RMK A01 T01280013  RH  046%=      5-min Rain = 0
KAOS 140825Z 23005KT 13/01 A2998 RMK A01 T01290014  RH  046%=      5-min Rain = 0
KAOS 140830Z 23005KT 13/01 A2998 RMK A01 T01290014  RH  046%=      5-min Rain = 0
KAOS 140835Z 25004KT 13/02 A2998 RMK A01 T01280015  RH  047%=      5-min Rain = 0
KAOS 140840Z 26003KT 12/02 A2998 RMK A01 T01230020  RH  050%=      5-min Rain = 0
KAOS 140845Z 24003KT 12/02 A2997 RMK A01 T01200019  RH  051%=      5-min Rain = 0
KAOS 140850Z 25005KT 13/02 A2997 RMK A01 T01260017  RH  048%=      5-min Rain = 0
KAOS 140855Z 25005KT 13/02 A2997 RMK A01 T01330017  RH  046%=      5-min Rain = 0
KAOS 140900Z 25005KT 13/02 A2997 RMK A01 T01330017  RH  046%=      5-min Rain = 0
KAOS 140905Z 25004KT 13/02 A2997 RMK A01 T01310019  RH  047%=      5-min Rain = 0
KAOS 140910Z 25005KT 13/02 A2997 RMK A01 T01300021  RH  048%=      5-min Rain = 0
KAOS 140915Z 25006KT 13/02 A2997 RMK A01 T01290022  RH  049%=      5-min Rain = 0
KAOS 140920Z 25006KT 13/02 A2997 RMK A01 T01300023  RH  049%=      5-min Rain = 0
KAOS 140925Z 25006KT 13/02 A2997 RMK A01 T01320024  RH  049%=      5-min Rain = 0
KAOS 140930Z 25006KT 14/03 A2997 RMK A01 T01350026  RH  048%=      5-min Rain = 0
KAOS 140935Z 26005KT 14/03 A2997 RMK A01 T01370027  RH  048%=      5-min Rain = 0
KAOS 140940Z 27004KT 13/03 A2997 RMK A01 T01310030  RH  051%=      5-min Rain = 0
KAOS 140945Z 28006KT 12/03 A2996 RMK A01 T01240032  RH  054%=      5-min Rain = 0
KAOS 140950Z 29006KT 12/03 A2996 RMK A01 T01220033  RH  055%=      5-min Rain = 0
KAOS 140955Z 29007KT 12/03 A2996 RMK A01 T01230034  RH  056%=      5-min Rain = 0
KAOS 141000Z 29006KT 13/04 A2996 RMK A01 T01260035  RH  055%=      5-min Rain = 0
KAOS 141005Z 31004KT 12/04 A2996 RMK A01 T01230035  RH  056%=      5-min Rain = 0
KAOS 141010Z 31004KT 12/04 A2997 RMK A01 T01170036  RH  058%=      5-min Rain = 0
KAOS 141015Z 30002KT 11/04 A2997 RMK A01 T01140035  RH  059%=      5-min Rain = 0
KAOS 141020Z 27001KT 11/03 A2997 RMK A01 T01140034  RH  059%=      5-min Rain = 0
KAOS 141025Z 31002KT 11/04 A2997 RMK A01 T01120036  RH  061%=      5-min Rain = 0
KAOS 141030Z 32003KT 11/04 A2997 RMK A01 T01090038  RH  063%=      5-min Rain = 0
KAOS 141035Z 31004KT 11/04 A2997 RMK A01 T01110037  RH  062%=      5-min Rain = 0
KAOS 141040Z 31005KT 11/04 A2997 RMK A01 T01100038  RH  062%=      5-min Rain = 0
KAOS 141045Z 30004KT 11/04 A2997 RMK A01 T01060039  RH  064%=      5-min Rain = 0
KAOS 141050Z 30004KT 10/04 A2997 RMK A01 T01040040  RH  066%=      5-min Rain = 0
KAOS 141055Z 30004KT 10/04 A2997 RMK A01 T01030041  RH  067%=      5-min Rain = 0
KAOS 141100Z 30005KT 10/04 A2997 RMK A01 T01020042  RH  068%=      5-min Rain = 0
KAOS 141105Z 31007KT 10/04 A2997 RMK A01 T01020043  RH  068%=      5-min Rain = 0
KAOS 141110Z 32009KT 10/04 A2998 RMK A01 T01040043  RH  067%=      5-min Rain = 0
KAOS 141115Z 31008KT 11/04 A2998 RMK A01 T01110043  RH  064%=      5-min Rain = 0
KAOS 141120Z 30007KT 12/05 A2998 RMK A01 T01150045  RH  063%=      5-min Rain = 0
KAOS 141125Z 31007KT 12/05 A2998 RMK A01 T01190046  RH  062%=      5-min Rain = 0
KAOS 141130Z 32007KT 12/04 A2999 RMK A01 T01180044  RH  062%=      5-min Rain = 0
KAOS 141135Z 31005KT 12/04 A2999 RMK A01 T01160043  RH  062%=      5-min Rain = 0
KAOS 141140Z 30005KT 12/04 A2999 RMK A01 T01160044  RH  062%=      5-min Rain = 0
KAOS 141145Z 30002KT 12/04 A2999 RMK A01 T01170044  RH  062%=      5-min Rain = 0
KAOS 141150Z 14001KT 12/04 A2999 RMK A01 T01150044  RH  063%=      5-min Rain = 0
KAOS 141155Z 33001KT 11/04 A30 RMK A01 T01130044  RH  064%=      5-min Rain = 0
KAOS 141200Z 33003KT 11/05 A2999 RMK A01 T01140046  RH  064%=      5-min Rain = 0
KAOS 141205Z 33004KT 11/05 A2999 RMK A01 T01140046  RH  064%=      5-min Rain = 0
KAOS 141210Z 33006KT 11/05 A2999 RMK A01 T01130046  RH  065%=      5-min Rain = 0
KAOS 141215Z 32004KT 11/05 A2999 RMK A01 T01100047  RH  066%=      5-min Rain = 0
KAOS 141220Z 32004KT 11/05 A2999 RMK A01 T01090048  RH  067%=      5-min Rain = 0
KAOS 141225Z 32002KT 11/05 A2999 RMK A01 T01070049  RH  069%=      5-min Rain = 0
KAOS 141230Z 32000KT 11/05 A30 RMK A01 T01060048  RH  069%=      5-min Rain = 0
KAOS 141235Z 32002KT 11/05 A30 RMK A01 T01050048  RH  069%=      5-min Rain = 0
KAOS 141240Z 31002KT 11/05 A30 RMK A01 T01050049  RH  070%=      5-min Rain = 0
KAOS 141245Z 31000KT 10/05 A30 RMK A01 T01030049  RH  070%=      5-min Rain = 0
KAOS 141250Z 17001KT 10/05 A30 RMK A01 T01040050  RH  071%=      5-min Rain = 0
KAOS 141255Z 18001KT 10/05 A30 RMK A01 T01010052  RH  073%=      5-min Rain = 0
KAOS 141300Z 28000KT 10/05 A30 RMK A01 T01000051  RH  073%=      5-min Rain = 0
KAOS 141305Z 32000KT 10/05 A30 RMK A01 T01000052  RH  073%=      5-min Rain = 0
KAOS 141310Z 33001KT 10/05 A30 RMK A01 T01000051  RH  073%=      5-min Rain = 0
KAOS 141315Z 31003KT 10/05 A30 RMK A01 T01000052  RH  074%=      5-min Rain = 0
KAOS 141320Z 30004KT 10/05 A30 RMK A01 T00990052  RH  074%=      5-min Rain = 0
KAOS 141325Z 29003KT 10/05 A30 RMK A01 T01010053  RH  073%=      5-min Rain = 0
KAOS 141330Z 30005KT 10/05 A30 RMK A01 T01030053  RH  073%=      5-min Rain = 0
KAOS 141335Z 31005KT 10/05 A3001 RMK A01 T01040054  RH  073%=      5-min Rain = 0
KAOS 141340Z 30004KT 11/05 A3001 RMK A01 T01060054  RH  072%=      5-min Rain = 0
KAOS 141345Z 29003KT 11/05 A3001 RMK A01 T01080054  RH  071%=      5-min Rain = 0
KAOS 141350Z 31004KT 11/06 A3001 RMK A01 T01090056  RH  071%=      5-min Rain = 0
KAOS 141355Z 30003KT 11/06 A3001 RMK A01 T01100056  RH  071%=      5-min Rain = 0
KAOS 141400Z 29002KT 11/06 A3001 RMK A01 T01110056  RH  071%=      5-min Rain = 0
KAOS 141405Z 27002KT 12/06 A3001 RMK A01 T01150060  RH  071%=      5-min Rain = 0
KAOS 141410Z 26001KT 13/06 A3001 RMK A01 T01260063  RH  067%=      5-min Rain = 0
KAOS 141415Z 25002KT 13/06 A3001 RMK A01 T01340061  RH  063%=      5-min Rain = 0
KAOS 141420Z 27002KT 14/06 A3001 RMK A01 T01380063  RH  062%=      5-min Rain = 0
KAOS 141425Z 27002KT 14/06 A3002 RMK A01 T01430064  RH  061%=      5-min Rain = 0
KAOS 141430Z 28002KT 15/07 A3002 RMK A01 T01500067  RH  059%=      5-min Rain = 0
KAOS 141435Z 27004KT 16/07 A3002 RMK A01 T01580068  RH  057%=      5-min Rain = 0
KAOS 141440Z 29005KT 16/06 A3002 RMK A01 T01620063  RH  053%=      5-min Rain = 0
KAOS 141445Z 29006KT 17/06 A3002 RMK A01 T01650061  RH  051%=      5-min Rain = 0
KAOS 141450Z 29006KT 17/06 A3002 RMK A01 T01700062  RH  050%=      5-min Rain = 0
KAOS 141455Z 29006KT 17/06 A3002 RMK A01 T01720059  RH  049%=      5-min Rain = 0
KAOS 141500Z 29006KT 18/06 A3002 RMK A01 T01800060  RH  046%=      5-min Rain = 0
KAOS 141505Z 29005KT 19/06 A3003 RMK A01 T01880062  RH  045%=      5-min Rain = 0
KAOS 141510Z 30006KT 19/06 A3002 RMK A01 T01940060  RH  043%=      5-min Rain = 0
KAOS 141515Z 30005KT 20/06 A3002 RMK A01 T01980059  RH  041%=      5-min Rain = 0
KAOS 141520Z 30004KT 20/06 A3002 RMK A01 T02040059  RH  040%=      5-min Rain = 0
KAOS 141525Z 30004KT 21/06 A3003 RMK A01 T02130057  RH  037%=      5-min Rain = 0
KAOS 141530Z 29003KT 22/06 A3003 RMK A01 T02150056  RH  036%=      5-min Rain = 0
KAOS 141535Z 32004KT 22/05 A3003 RMK A01 T02180049  RH  034%=      5-min Rain = 0
KAOS 141540Z 31004KT 22/05 A3003 RMK A01 T02230048  RH  033%=      5-min Rain = 0
KAOS 141545Z 31004KT 23/05 A3002 RMK A01 T02250046  RH  032%=      5-min Rain = 0
KAOS 141550Z 31004KT 23/05 A3002 RMK A01 T02260048  RH  032%=      5-min Rain = 0
KAOS 141555Z 30003KT 23/05 A3002 RMK A01 T02290049  RH  032%=      5-min Rain = 0
KAOS 141600Z 30003KT 23/04 A3002 RMK A01 T02330044  RH  030%=      5-min Rain = 0
KAOS 141605Z 31003KT 24/04 A3002 RMK A01 T02360043  RH  029%=      5-min Rain = 0
KAOS 141610Z 30004KT 24/04 A3001 RMK A01 T02380041  RH  028%=      5-min Rain = 0
KAOS 141615Z 31002KT 24/04 A3001 RMK A01 T02380037  RH  028%=      5-min Rain = 0
KAOS 141620Z 29003KT 24/04 A3001 RMK A01 T02380037  RH  027%=      5-min Rain = 0
KAOS 141625Z 28005KT 24/03 A3001 RMK A01 T02410032  RH  026%=      5-min Rain = 0
KAOS 141630Z 31003KT 24/03 A3001 RMK A01 T02420032  RH  026%=      5-min Rain = 0
KAOS 141635Z 33002KT 25/04 A3001 RMK A01 T02460035  RH  026%=      5-min Rain = 0
KAOS 141640Z 32003KT 25/03 A3001 RMK A01 T02490034  RH  025%=      5-min Rain = 0
KAOS 141645Z 34003KT 25/03 A3001 RMK A01 T02490034  RH  025%=      5-min Rain = 0
KAOS 141650Z 31002KT 25/04 A3001 RMK A01 T02530035  RH  025%=      5-min Rain = 0
KAOS 141655Z 32004KT 26/04 A3001 RMK A01 T02550035  RH  025%=      5-min Rain = 0
KAOS 141700Z 29003KT 25/03 A3001 RMK A01 T02540033  RH  024%=      5-min Rain = 0
KAOS 141705Z 30002KT 26/04 A3001 RMK A01 T02600037  RH  024%=      5-min Rain = 0
KAOS 141710Z 03001KT 27/04 A30 RMK A01 T02670042  RH  024%=      5-min Rain = 0
KAOS 141715Z 23001KT 27/03 A30 RMK A01 T02660034  RH  023%=      5-min Rain = 0
KAOS 141720Z 08001KT 27/03 A30 RMK A01 T02650034  RH  023%=      5-min Rain = 0
KAOS 141725Z 13003KT 27/03 A2999 RMK A01 T02680032  RH  022%=      5-min Rain = 0
KAOS 141730Z 14004KT 27/03 A2999 RMK A01 T02660033  RH  023%=      5-min Rain = 0
KAOS 141735Z 15004KT 26/04 A2999 RMK A01 T02640035  RH  023%=      5-min Rain = 0
KAOS 141740Z 15005KT 27/05 A2999 RMK A01 T02670047  RH  025%=      5-min Rain = 0
KAOS 141745Z 15005G10KT 27/04 A2999 RMK A01 T02720044  RH  024%=      5-min Rain = 0
KAOS 141750Z 16007KT 28/03 A2999 RMK A01 T02750034  RH  022%=      5-min Rain = 0
KAOS 141755Z 17008KT 27/04 A2999 RMK A01 T02690036  RH  023%=      5-min Rain = 0
KAOS 141800Z 17011KT 27/05 A2999 RMK A01 T02650048  RH  025%=      5-min Rain = 0
KAOS 141805Z 17011KT 26/06 A2998 RMK A01 T02570062  RH  029%=      5-min Rain = 0
KAOS 141810Z 17011KT 26/06 A2998 RMK A01 T02550058  RH  029%=      5-min Rain = 0
KAOS 141815Z 17010G15KT 26/05 A2998 RMK A01 T02560054  RH  028%=      5-min Rain = 0
KAOS 141820Z 17012KT 26/05 A2998 RMK A01 T02610052  RH  027%=      5-min Rain = 0
KAOS 141825Z 17012KT 26/06 A2998 RMK A01 T02620057  RH  027%=      5-min Rain = 0
KAOS 141830Z 17010KT 26/07 A2998 RMK A01 T02590065  RH  030%=      5-min Rain = 0
KAOS 141835Z 18010KT 27/07 A2997 RMK A01 T02660073  RH  030%=      5-min Rain = 0
KAOS 141840Z 18011KT 27/07 A2997 RMK A01 T02670068  RH  029%=      5-min Rain = 0
KAOS 141845Z 17011KT 27/07 A2997 RMK A01 T02680069  RH  029%=      5-min Rain = 0
KAOS 141850Z 17010KT 27/07 A2997 RMK A01 T02660069  RH  029%=      5-min Rain = 0
KAOS 141855Z 17011KT 27/07 A2996 RMK A01 T02650073  RH  030%=      5-min Rain = 0
KAOS 141900Z 17010KT 27/07 A2996 RMK A01 T02660069  RH  029%=      5-min Rain = 0
KAOS 141905Z 17010KT 27/07 A2996 RMK A01 T02680068  RH  029%=      5-min Rain = 0
KAOS 141910Z 16011KT 27/07 A2996 RMK A01 T02690067  RH  028%=      5-min Rain = 0
KAOS 141915Z 17010KT 27/07 A2996 RMK A01 T02730066  RH  028%=      5-min Rain = 0
KAOS 141920Z 18011G16KT 27/06 A2995 RMK A01 T02740061  RH  026%=      5-min Rain = 0
KAOS 141925Z 17011G16KT 27/07 A2995 RMK A01 T02740066  RH  027%=      5-min Rain = 0
KAOS 141930Z 19012KT 28/06 A2994 RMK A01 T02780056  RH  025%=      5-min Rain = 0
KAOS 141935Z 19010KT 28/06 A2994 RMK A01 T02790055  RH  025%=      5-min Rain = 0
KAOS 141940Z 17011KT 28/06 A2994 RMK A01 T02800058  RH  025%=      5-min Rain = 0
KAOS 141945Z 20011KT 28/06 A2994 RMK A01 T02820061  RH  025%=      5-min Rain = 0
KAOS 141950Z 20009G16KT 28/06 A2993 RMK A01 T02820063  RH  026%=      5-min Rain = 0
KAOS 141955Z 18012G18KT 28/06 A2993 RMK A01 T02820061  RH  025%=      5-min Rain = 0
KAOS 142000Z 19011KT 28/07 A2993 RMK A01 T02820067  RH  026%=      5-min Rain = 0
KAOS 142005Z 21011KT 28/07 A2993 RMK A01 T02840071  RH  027%=      5-min Rain = 0
KAOS 142010Z 19010G19KT 28/08 A2992 RMK A01 T02820080  RH  029%=      5-min Rain = 0
KAOS 142015Z 17010G15KT 28/09 A2992 RMK A01 T02830086  RH  030%=      5-min Rain = 0
KAOS 142020Z 19012G18KT 28/08 A2992 RMK A01 T02840082  RH  029%=      5-min Rain = 0
KAOS 142025Z 21009G17KT 28/08 A2992 RMK A01 T02810082  RH  029%=      5-min Rain = 0
KAOS 142030Z 18010KT 29/08 A2991 RMK A01 T02850084  RH  029%=      5-min Rain = 0
KAOS 142035Z 17009G15KT 28/08 A2991 RMK A01 T02840081  RH  029%=      5-min Rain = 0
KAOS 142040Z 21009G16KT 28/08 A2991 RMK A01 T02840082  RH  029%=      5-min Rain = 0
KAOS 142045Z 20009KT 29/08 A2991 RMK A01 T02850080  RH  028%=      5-min Rain = 0
KAOS 142050Z 18011KT 29/08 A2991 RMK A01 T02850077  RH  028%=      5-min Rain = 0
KAOS 142055Z 19009KT 29/08 A2991 RMK A01 T02870079  RH  028%=      5-min Rain = 0
KAOS 142100Z 21010G19KT 29/08 A2991 RMK A01 T02870082  RH  028%=      5-min Rain = 0
KAOS 142105Z 20009G16KT 29/08 A2991 RMK A01 T02860081  RH  028%=      5-min Rain = 0
KAOS 142110Z 18011G17KT 29/08 A2991 RMK A01 T02860080  RH  028%=      5-min Rain = 0
KAOS 142115Z 19009KT 29/08 A2991 RMK A01 T02890081  RH  028%=      5-min Rain = 0
KAOS 142120Z 21012G19KT 29/08 A299 RMK A01 T02900081  RH  028%=      5-min Rain = 0
KAOS 142125Z 22008G13KT 29/08 A2991 RMK A01 T02850081  RH  029%=      5-min Rain = 0
KAOS 142130Z 20009KT 29/08 A2991 RMK A01 T02860081  RH  028%=      5-min Rain = 0
KAOS 142135Z 19010G17KT 29/08 A299 RMK A01 T02850079  RH  028%=      5-min Rain = 0
KAOS 142140Z 18008KT 29/08 A299 RMK A01 T02870080  RH  028%=      5-min Rain = 0
KAOS 142145Z 18011KT 29/08 A299 RMK A01 T02910081  RH  028%=      5-min Rain = 0
KAOS 142150Z 22008G14KT 29/08 A299 RMK A01 T02880081  RH  028%=      5-min Rain = 0
KAOS 142155Z 20009G15KT 29/08 A299 RMK A01 T02850082  RH  029%=      5-min Rain = 0
KAOS 142200Z 19010KT 29/08 A299 RMK A01 T02870082  RH  028%=      5-min Rain = 0
KAOS 142205Z 20011KT 29/08 A299 RMK A01 T02870082  RH  028%=      5-min Rain = 0
KAOS 142210Z 18009KT 29/08 A299 RMK A01 T02870079  RH  028%=      5-min Rain = 0
KAOS 142215Z 16009KT 29/08 A299 RMK A01 T02870078  RH  027%=      5-min Rain = 0
KAOS 142220Z 19011KT 29/08 A299 RMK A01 T02880082  RH  028%=      5-min Rain = 0
KAOS 142225Z 20010KT 29/08 A299 RMK A01 T02850080  RH  028%=      5-min Rain = 0
KAOS 142230Z 19010G15KT 28/08 A299 RMK A01 T02840079  RH  028%=      5-min Rain = 0
KAOS 142235Z 19011KT 29/08 A299 RMK A01 T02850079  RH  028%=      5-min Rain = 0
KAOS 142240Z 18011KT 28/08 A2989 RMK A01 T02840078  RH  028%=      5-min Rain = 0
KAOS 142245Z 19010KT 28/08 A2989 RMK A01 T02840080  RH  029%=      5-min Rain = 0
KAOS 142250Z 20010KT 28/08 A2989 RMK A01 T02820082  RH  029%=      5-min Rain = 0
KAOS 142255Z 19011KT 28/08 A2989 RMK A01 T02820082  RH  029%=      5-min Rain = 0
KAOS 142300Z 19011KT 28/08 A299 RMK A01 T02820082  RH  029%=      5-min Rain = 0
KAOS 142305Z 19011KT 28/08 A299 RMK A01 T02800082  RH  030%=      5-min Rain = 0
KAOS 142310Z 18010KT 28/08 A2989 RMK A01 T02810082  RH  030%=      5-min Rain = 0
KAOS 142315Z 20009KT 28/08 A2989 RMK A01 T02780083  RH  030%=      5-min Rain = 0
KAOS 142320Z 19009KT 28/08 A299 RMK A01 T02770083  RH  030%=      5-min Rain = 0
KAOS 142325Z 18010KT 28/09 A2989 RMK A01 T02760085  RH  031%=      5-min Rain = 0
KAOS 142330Z 18010KT 27/09 A299 RMK A01 T02740087  RH  032%=      5-min Rain = 0
KAOS 142335Z 19009KT 27/09 A299 RMK A01 T02710089  RH  033%=      5-min Rain = 0
KAOS 142340Z 19008G13KT 27/09 A299 RMK A01 T02690089  RH  033%=      5-min Rain = 0
KAOS 142345Z 18010KT 27/09 A299 RMK A01 T02670092  RH  034%=      5-min Rain = 0
KAOS 142350Z 19010KT 26/09 A299 RMK A01 T02640091  RH  035%=      5-min Rain = 0
KAOS 142355Z 18009KT 26/09 A299 RMK A01 T02610092  RH  035%=      5-min Rain = 0
KAOS 150000Z 18009KT 26/09 A299 RMK A01 T02570094  RH  037%=      5-min Rain = 0
KAOS 150005Z 19008KT 25/10 A299 RMK A01 T02530095  RH  038%=      5-min Rain = 0
KAOS 150010Z 19008KT 25/10 A299 RMK A01 T02470095  RH  039%=      5-min Rain = 0
KAOS 150015Z 19007KT 24/09 A299 RMK A01 T02420094  RH  040%=      5-min Rain = 0
KAOS 150020Z 19007KT 24/10 A299 RMK A01 T02370095  RH  042%=      5-min Rain = 0
KAOS 150025Z 19007KT 23/10 A2991 RMK A01 T02330095  RH  043%=      5-min Rain = 0
KAOS 150030Z 19008KT 23/10 A2991 RMK A01 T02290095  RH  044%=      5-min Rain = 0
KAOS 150035Z 19007KT 23/09 A2991 RMK A01 T02250094  RH  045%=      5-min Rain = 0
KAOS 150040Z 19007KT 22/10 A2991 RMK A01 T02200095  RH  046%=      5-min Rain = 0
KAOS 150045Z 19007KT 22/10 A2991 RMK A01 T02150095  RH  048%=      5-min Rain = 0
KAOS 150050Z 19007KT 21/10 A2991 RMK A01 T02120096  RH  049%=      5-min Rain = 0
KAOS 150055Z 19008KT 21/10 A2991 RMK A01 T02080096  RH  050%=      5-min Rain = 0
KAOS 150100Z 19008KT 20/10 A2991 RMK A01 T02030097  RH  052%=      5-min Rain = 0
KAOS 150105Z 20008KT 20/10 A2991 RMK A01 T02000098  RH  053%=      5-min Rain = 0
KAOS 150110Z 20008KT 20/10 A2992 RMK A01 T02030100  RH  053%=      5-min Rain = 0
KAOS 150115Z 20008KT 20/10 A2992 RMK A01 T02040102  RH  054%=      5-min Rain = 0
KAOS 150120Z 20007KT 20/10 A2992 RMK A01 T02030103  RH  054%=      5-min Rain = 0
KAOS 150125Z 21008KT 20/10 A2992 RMK A01 T02020103  RH  055%=      5-min Rain = 0
KAOS 150130Z 21008KT 20/10 A2993 RMK A01 T02020104  RH  055%=      5-min Rain = 0
KAOS 150135Z 21007KT 20/11 A2993 RMK A01 T02010105  RH  056%=      5-min Rain = 0
KAOS 150140Z 22008KT 20/11 A2993 RMK A01 T02000105  RH  056%=      5-min Rain = 0
KAOS 150145Z 22007KT 20/11 A2993 RMK A01 T02020106  RH  056%=      5-min Rain = 0
KAOS 150150Z 22007KT 20/11 A2993 RMK A01 T02010105  RH  056%=      5-min Rain = 0
KAOS 150155Z 22007KT 20/11 A2993 RMK A01 T01980106  RH  057%=      5-min Rain = 0
KAOS 150200Z 21007KT 19/11 A2993 RMK A01 T01940105  RH  058%=      5-min Rain = 0
KAOS 150205Z 20007KT 19/10 A2993 RMK A01 T01880104  RH  060%=      5-min Rain = 0
KAOS 150210Z 20007KT 18/10 A2993 RMK A01 T01810103  RH  062%=      5-min Rain = 0
KAOS 150215Z 19007KT 18/10 A2993 RMK A01 T01770103  RH  064%=      5-min Rain = 0
KAOS 150220Z 19007KT 17/10 A2993 RMK A01 T01720102  RH  065%=      5-min Rain = 0
KAOS 150225Z 19006KT 17/10 A2994 RMK A01 T01680101  RH  067%=      5-min Rain = 0
KAOS 150230Z 20007KT 17/10 A2994 RMK A01 T01680102  RH  067%=      5-min Rain = 0
KAOS 150235Z 20008KT 17/10 A2994 RMK A01 T01700103  RH  067%=      5-min Rain = 0
KAOS 150240Z 21008KT 17/10 A2994 RMK A01 T01710103  RH  066%=      5-min Rain = 0
KAOS 150245Z 21008KT 17/10 A2994 RMK A01 T01730101  RH  065%=      5-min Rain = 0
KAOS 150250Z 21008KT 18/10 A2995 RMK A01 T01750099  RH  063%=      5-min Rain = 0
KAOS 150255Z 21007KT 17/10 A2995 RMK A01 T01700097  RH  064%=      5-min Rain = 0
KAOS 150300Z 21007KT 17/10 A2995 RMK A01 T01650096  RH  066%=      5-min Rain = 0
KAOS 150305Z 20006KT 16/10 A2995 RMK A01 T01640095  RH  066%=      5-min Rain = 0
KAOS 150310Z 21007KT 16/09 A2995 RMK A01 T01630094  RH  066%=      5-min Rain = 0
KAOS 150315Z 20007KT 16/09 A2995 RMK A01 T01610092  RH  066%=      5-min Rain = 0
KAOS 150320Z 20007KT 16/09 A2996 RMK A01 T01570091  RH  067%=      5-min Rain = 0
KAOS 150325Z 21007KT 16/09 A2996 RMK A01 T01570091  RH  067%=      5-min Rain = 0
KAOS 150330Z 21007KT 16/09 A2996 RMK A01 T01580091  RH  066%=      5-min Rain = 0
KAOS 150335Z 22006KT 16/09 A2996 RMK A01 T01580091  RH  066%=      5-min Rain = 0
KAOS 150340Z 22006KT 16/09 A2996 RMK A01 T01580090  RH  066%=      5-min Rain = 0
KAOS 150345Z 21007KT 16/09 A2996 RMK A01 T01570089  RH  066%=      5-min Rain = 0
KAOS 150350Z 21007KT 16/09 A2996 RMK A01 T01570089  RH  066%=      5-min Rain = 0
KAOS 150355Z 22007KT 16/09 A2996 RMK A01 T01640087  RH  062%=      5-min Rain = 0
KAOS 150400Z 22007KT 17/08 A2996 RMK A01 T01700084  RH  058%=      5-min Rain = 0
KAOS 150405Z 22007KT 17/08 A2996 RMK A01 T01730082  RH  057%=      5-min Rain = 0
KAOS 150410Z 23007KT 17/08 A2996 RMK A01 T01720081  RH  057%=      5-min Rain = 0
KAOS 150415Z 22006KT 17/08 A2996 RMK A01 T01680080  RH  058%=      5-min Rain = 0
KAOS 150420Z 21004KT 16/08 A2996 RMK A01 T01570080  RH  062%=      5-min Rain = 0
KAOS 150425Z 23006KT 15/08 A2996 RMK A01 T01490080  RH  065%=      5-min Rain = 0
KAOS 150430Z 21006KT 15/08 A2996 RMK A01 T01490079  RH  065%=      5-min Rain = 0
KAOS 150435Z 21004KT 15/08 A2996 RMK A01 T01490079  RH  065%=      5-min Rain = 0
KAOS 150440Z 22003KT 14/08 A2996 RMK A01 T01420078  RH  067%=      5-min Rain = 0
KAOS 150445Z 23002KT 14/08 A2996 RMK A01 T01380079  RH  069%=      5-min Rain = 0
KAOS 150450Z 24002KT 14/08 A2996 RMK A01 T01390080  RH  070%=      5-min Rain = 0
KAOS 150455Z 25002KT 14/08 A2996 RMK A01 T01390081  RH  070%=      5-min Rain = 0

Page generated in 0.017 seconds.